sensor_id;sensor_type;location;lat;lon;timestamp;P1;durP1;ratioP1;P2;durP2;ratioP2
9328;SDS011;4703;48.748;19.142;2022-08-19T00:02:01;13.57;;;12.30;;
9328;SDS011;4703;48.748;19.142;2022-08-19T00:04:30;12.10;;;11.00;;
9328;SDS011;4703;48.748;19.142;2022-08-19T00:07:03;12.67;;;11.50;;
9328;SDS011;4703;48.748;19.142;2022-08-19T00:09:32;12.27;;;11.10;;
9328;SDS011;4703;48.748;19.142;2022-08-19T00:11:59;11.83;;;10.73;;
9328;SDS011;4703;48.748;19.142;2022-08-19T00:14:27;13.23;;;12.03;;
9328;SDS011;4703;48.748;19.142;2022-08-19T00:16:57;12.80;;;11.70;;
9328;SDS011;4703;48.748;19.142;2022-08-19T00:19:24;13.80;;;12.60;;
9328;SDS011;4703;48.748;19.142;2022-08-19T00:21:51;13.40;;;12.30;;
9328;SDS011;4703;48.748;19.142;2022-08-19T00:24:19;13.83;;;12.63;;
9328;SDS011;4703;48.748;19.142;2022-08-19T00:26:46;13.83;;;12.53;;
9328;SDS011;4703;48.748;19.142;2022-08-19T00:29:15;13.33;;;12.33;;
9328;SDS011;4703;48.748;19.142;2022-08-19T00:31:45;13.03;;;12.00;;
9328;SDS011;4703;48.748;19.142;2022-08-19T00:34:15;13.57;;;12.10;;
9328;SDS011;4703;48.748;19.142;2022-08-19T00:36:42;14.27;;;13.03;;
9328;SDS011;4703;48.748;19.142;2022-08-19T00:39:10;11.73;;;10.83;;
9328;SDS011;4703;48.748;19.142;2022-08-19T00:41:38;12.20;;;11.20;;
9328;SDS011;4703;48.748;19.142;2022-08-19T00:44:08;13.47;;;12.27;;
9328;SDS011;4703;48.748;19.142;2022-08-19T00:46:43;13.63;;;12.43;;
9328;SDS011;4703;48.748;19.142;2022-08-19T00:52:21;13.20;;;12.03;;
9328;SDS011;4703;48.748;19.142;2022-08-19T00:54:56;13.00;;;11.80;;
9328;SDS011;4703;48.748;19.142;2022-08-19T00:57:30;13.70;;;12.50;;
9328;SDS011;4703;48.748;19.142;2022-08-19T01:00:08;13.87;;;12.67;;
9328;SDS011;4703;48.748;19.142;2022-08-19T01:02:40;13.00;;;11.80;;
9328;SDS011;4703;48.748;19.142;2022-08-19T01:05:13;14.87;;;13.67;;
9328;SDS011;4703;48.748;19.142;2022-08-19T01:07:48;13.53;;;12.53;;
9328;SDS011;4703;48.748;19.142;2022-08-19T01:10:19;12.53;;;11.43;;
9328;SDS011;4703;48.748;19.142;2022-08-19T01:12:51;13.77;;;12.57;;
9328;SDS011;4703;48.748;19.142;2022-08-19T01:15:20;13.90;;;12.50;;
9328;SDS011;4703;48.748;19.142;2022-08-19T01:17:53;12.43;;;11.47;;
9328;SDS011;4703;48.748;19.142;2022-08-19T01:20:22;12.63;;;11.40;;
9328;SDS011;4703;48.748;19.142;2022-08-19T01:22:54;12.97;;;11.90;;
9328;SDS011;4703;48.748;19.142;2022-08-19T01:25:27;12.47;;;11.37;;
9328;SDS011;4703;48.748;19.142;2022-08-19T01:27:58;12.30;;;11.20;;
9328;SDS011;4703;48.748;19.142;2022-08-19T01:30:36;13.20;;;12.10;;
9328;SDS011;4703;48.748;19.142;2022-08-19T01:33:03;14.17;;;12.97;;
9328;SDS011;4703;48.748;19.142;2022-08-19T01:35:31;12.93;;;11.73;;
9328;SDS011;4703;48.748;19.142;2022-08-19T01:38:05;13.50;;;12.40;;
9328;SDS011;4703;48.748;19.142;2022-08-19T01:40:38;14.03;;;12.87;;
9328;SDS011;4703;48.748;19.142;2022-08-19T01:43:06;14.20;;;13.00;;
9328;SDS011;4703;48.748;19.142;2022-08-19T01:45:34;14.30;;;13.03;;
9328;SDS011;4703;48.748;19.142;2022-08-19T01:48:03;13.20;;;12.10;;
9328;SDS011;4703;48.748;19.142;2022-08-19T01:50:31;14.20;;;12.70;;
9328;SDS011;4703;48.748;19.142;2022-08-19T01:53:00;13.00;;;11.90;;
9328;SDS011;4703;48.748;19.142;2022-08-19T01:55:34;13.90;;;12.70;;
9328;SDS011;4703;48.748;19.142;2022-08-19T01:58:07;13.30;;;12.00;;
9328;SDS011;4703;48.748;19.142;2022-08-19T02:00:56;13.13;;;11.83;;
9328;SDS011;4703;48.748;19.142;2022-08-19T02:03:24;12.97;;;11.83;;
9328;SDS011;4703;48.748;19.142;2022-08-19T02:05:55;15.00;;;12.63;;
9328;SDS011;4703;48.748;19.142;2022-08-19T02:08:29;13.40;;;12.00;;
9328;SDS011;4703;48.748;19.142;2022-08-19T02:10:58;12.93;;;11.73;;
9328;SDS011;4703;48.748;19.142;2022-08-19T02:13:25;13.80;;;12.50;;
9328;SDS011;4703;48.748;19.142;2022-08-19T02:15:53;13.80;;;12.60;;
9328;SDS011;4703;48.748;19.142;2022-08-19T02:18:20;12.97;;;11.77;;
9328;SDS011;4703;48.748;19.142;2022-08-19T02:20:53;12.63;;;11.43;;
9328;SDS011;4703;48.748;19.142;2022-08-19T02:23:20;14.00;;;12.90;;
9328;SDS011;4703;48.748;19.142;2022-08-19T02:25:47;14.03;;;12.83;;
9328;SDS011;4703;48.748;19.142;2022-08-19T02:28:15;13.10;;;11.90;;
9328;SDS011;4703;48.748;19.142;2022-08-19T02:30:44;14.03;;;12.83;;
9328;SDS011;4703;48.748;19.142;2022-08-19T02:33:13;14.50;;;11.90;;
9328;SDS011;4703;48.748;19.142;2022-08-19T02:35:41;14.27;;;13.07;;
9328;SDS011;4703;48.748;19.142;2022-08-19T02:38:09;13.63;;;12.53;;
9328;SDS011;4703;48.748;19.142;2022-08-19T02:40:54;14.60;;;12.47;;
9328;SDS011;4703;48.748;19.142;2022-08-19T02:43:30;13.20;;;12.10;;
9328;SDS011;4703;48.748;19.142;2022-08-19T02:46:00;12.93;;;11.83;;
9328;SDS011;4703;48.748;19.142;2022-08-19T02:48:27;13.50;;;12.20;;
9328;SDS011;4703;48.748;19.142;2022-08-19T02:50:54;12.70;;;11.60;;
9328;SDS011;4703;48.748;19.142;2022-08-19T02:53:22;14.73;;;13.53;;
9328;SDS011;4703;48.748;19.142;2022-08-19T02:55:52;13.73;;;12.47;;
9328;SDS011;4703;48.748;19.142;2022-08-19T02:58:20;13.80;;;12.67;;
9328;SDS011;4703;48.748;19.142;2022-08-19T03:00:52;13.90;;;12.60;;
9328;SDS011;4703;48.748;19.142;2022-08-19T03:03:21;14.07;;;12.77;;
9328;SDS011;4703;48.748;19.142;2022-08-19T03:05:48;13.33;;;12.03;;
9328;SDS011;4703;48.748;19.142;2022-08-19T03:08:22;14.53;;;13.20;;
9328;SDS011;4703;48.748;19.142;2022-08-19T03:10:50;14.03;;;12.83;;
9328;SDS011;4703;48.748;19.142;2022-08-19T03:13:19;14.80;;;13.50;;
9328;SDS011;4703;48.748;19.142;2022-08-19T03:15:46;14.17;;;12.97;;
9328;SDS011;4703;48.748;19.142;2022-08-19T03:18:15;14.00;;;12.70;;
9328;SDS011;4703;48.748;19.142;2022-08-19T03:20:52;13.50;;;12.17;;
9328;SDS011;4703;48.748;19.142;2022-08-19T03:23:20;14.57;;;13.27;;
9328;SDS011;4703;48.748;19.142;2022-08-19T03:25:49;13.90;;;12.70;;
9328;SDS011;4703;48.748;19.142;2022-08-19T03:28:37;14.37;;;13.17;;
9328;SDS011;4703;48.748;19.142;2022-08-19T03:31:06;14.93;;;13.53;;
9328;SDS011;4703;48.748;19.142;2022-08-19T03:34:00;14.43;;;13.13;;
9328;SDS011;4703;48.748;19.142;2022-08-19T03:36:28;14.20;;;12.90;;
9328;SDS011;4703;48.748;19.142;2022-08-19T03:38:56;13.00;;;11.90;;
9328;SDS011;4703;48.748;19.142;2022-08-19T03:41:27;14.87;;;13.67;;
9328;SDS011;4703;48.748;19.142;2022-08-19T03:44:15;16.17;;;14.87;;
9328;SDS011;4703;48.748;19.142;2022-08-19T03:46:47;14.40;;;13.17;;
9328;SDS011;4703;48.748;19.142;2022-08-19T03:49:19;13.90;;;12.70;;
9328;SDS011;4703;48.748;19.142;2022-08-19T03:51:52;15.53;;;14.07;;
9328;SDS011;4703;48.748;19.142;2022-08-19T03:54:21;14.33;;;13.13;;
9328;SDS011;4703;48.748;19.142;2022-08-19T03:56:51;14.30;;;12.90;;
9328;SDS011;4703;48.748;19.142;2022-08-19T03:59:22;14.80;;;13.50;;
9328;SDS011;4703;48.748;19.142;2022-08-19T04:01:56;14.70;;;13.30;;
9328;SDS011;4703;48.748;19.142;2022-08-19T04:04:25;14.70;;;13.10;;
9328;SDS011;4703;48.748;19.142;2022-08-19T04:06:54;15.00;;;13.80;;
9328;SDS011;4703;48.748;19.142;2022-08-19T04:09:22;14.37;;;13.07;;
9328;SDS011;4703;48.748;19.142;2022-08-19T04:11:51;14.87;;;13.47;;
9328;SDS011;4703;48.748;19.142;2022-08-19T04:14:21;14.40;;;13.10;;
9328;SDS011;4703;48.748;19.142;2022-08-19T04:16:56;14.73;;;13.43;;
9328;SDS011;4703;48.748;19.142;2022-08-19T04:19:25;15.27;;;13.83;;
9328;SDS011;4703;48.748;19.142;2022-08-19T04:21:55;15.07;;;13.73;;
9328;SDS011;4703;48.748;19.142;2022-08-19T04:24:22;14.17;;;12.97;;
9328;SDS011;4703;48.748;19.142;2022-08-19T04:26:49;15.30;;;13.70;;
9328;SDS011;4703;48.748;19.142;2022-08-19T04:29:18;16.00;;;14.50;;
9328;SDS011;4703;48.748;19.142;2022-08-19T04:31:51;14.93;;;13.57;;
9328;SDS011;4703;48.748;19.142;2022-08-19T04:34:22;15.87;;;14.40;;
9328;SDS011;4703;48.748;19.142;2022-08-19T04:36:52;15.37;;;13.87;;
9328;SDS011;4703;48.748;19.142;2022-08-19T04:39:29;14.50;;;13.23;;
9328;SDS011;4703;48.748;19.142;2022-08-19T04:42:16;15.23;;;13.73;;
9328;SDS011;4703;48.748;19.142;2022-08-19T04:45:03;15.03;;;13.83;;
9328;SDS011;4703;48.748;19.142;2022-08-19T04:47:34;14.57;;;13.40;;
9328;SDS011;4703;48.748;19.142;2022-08-19T04:50:23;14.53;;;13.30;;
9328;SDS011;4703;48.748;19.142;2022-08-19T04:52:51;15.20;;;13.90;;
9328;SDS011;4703;48.748;19.142;2022-08-19T04:55:19;15.20;;;13.80;;
9328;SDS011;4703;48.748;19.142;2022-08-19T04:57:46;15.70;;;14.23;;
9328;SDS011;4703;48.748;19.142;2022-08-19T05:00:14;14.37;;;13.20;;
9328;SDS011;4703;48.748;19.142;2022-08-19T05:02:41;15.37;;;14.07;;
9328;SDS011;4703;48.748;19.142;2022-08-19T05:05:08;15.57;;;14.10;;
9328;SDS011;4703;48.748;19.142;2022-08-19T05:07:35;14.47;;;13.27;;
9328;SDS011;4703;48.748;19.142;2022-08-19T05:10:04;16.40;;;15.10;;
9328;SDS011;4703;48.748;19.142;2022-08-19T05:12:32;16.03;;;14.43;;
9328;SDS011;4703;48.748;19.142;2022-08-19T05:15:01;15.57;;;14.17;;
9328;SDS011;4703;48.748;19.142;2022-08-19T05:17:34;15.57;;;14.17;;
9328;SDS011;4703;48.748;19.142;2022-08-19T05:20:06;16.27;;;14.97;;
9328;SDS011;4703;48.748;19.142;2022-08-19T05:22:52;16.73;;;15.13;;
9328;SDS011;4703;48.748;19.142;2022-08-19T05:25:20;14.80;;;13.63;;
9328;SDS011;4703;48.748;19.142;2022-08-19T05:27:48;16.93;;;15.53;;
9328;SDS011;4703;48.748;19.142;2022-08-19T05:30:15;16.70;;;15.10;;
9328;SDS011;4703;48.748;19.142;2022-08-19T05:32:43;16.00;;;14.60;;
9328;SDS011;4703;48.748;19.142;2022-08-19T05:35:10;15.63;;;14.20;;
9328;SDS011;4703;48.748;19.142;2022-08-19T05:37:38;16.83;;;15.33;;
9328;SDS011;4703;48.748;19.142;2022-08-19T05:40:08;17.10;;;15.60;;
9328;SDS011;4703;48.748;19.142;2022-08-19T05:42:36;16.93;;;15.50;;
9328;SDS011;4703;48.748;19.142;2022-08-19T05:45:04;16.27;;;14.77;;
9328;SDS011;4703;48.748;19.142;2022-08-19T05:47:32;17.30;;;14.80;;
9328;SDS011;4703;48.748;19.142;2022-08-19T05:49:59;17.77;;;16.03;;
9328;SDS011;4703;48.748;19.142;2022-08-19T05:52:30;17.27;;;15.67;;
9328;SDS011;4703;48.748;19.142;2022-08-19T05:54:58;16.53;;;14.93;;
9328;SDS011;4703;48.748;19.142;2022-08-19T05:57:25;16.30;;;14.80;;
9328;SDS011;4703;48.748;19.142;2022-08-19T05:59:54;15.50;;;14.10;;
9328;SDS011;4703;48.748;19.142;2022-08-19T06:02:25;16.97;;;15.43;;
9328;SDS011;4703;48.748;19.142;2022-08-19T06:04:53;15.90;;;14.60;;
9328;SDS011;4703;48.748;19.142;2022-08-19T06:07:20;16.90;;;15.33;;
9328;SDS011;4703;48.748;19.142;2022-08-19T06:09:47;16.77;;;15.10;;
9328;SDS011;4703;48.748;19.142;2022-08-19T06:12:26;15.87;;;14.57;;
9328;SDS011;4703;48.748;19.142;2022-08-19T06:15:03;16.60;;;15.20;;
9328;SDS011;4703;48.748;19.142;2022-08-19T06:17:36;18.70;;;16.90;;
9328;SDS011;4703;48.748;19.142;2022-08-19T06:20:08;18.87;;;17.07;;
9328;SDS011;4703;48.748;19.142;2022-08-19T06:22:40;16.63;;;15.23;;
9328;SDS011;4703;48.748;19.142;2022-08-19T06:25:11;25.27;;;22.60;;
9328;SDS011;4703;48.748;19.142;2022-08-19T06:27:40;28.53;;;25.33;;
9328;SDS011;4703;48.748;19.142;2022-08-19T06:30:27;26.60;;;24.03;;
9328;SDS011;4703;48.748;19.142;2022-08-19T06:32:54;20.80;;;17.83;;
9328;SDS011;4703;48.748;19.142;2022-08-19T06:35:22;17.53;;;16.03;;
9328;SDS011;4703;48.748;19.142;2022-08-19T06:37:48;17.63;;;16.23;;
9328;SDS011;4703;48.748;19.142;2022-08-19T06:40:15;16.57;;;15.07;;
9328;SDS011;4703;48.748;19.142;2022-08-19T06:42:43;17.30;;;15.83;;
9328;SDS011;4703;48.748;19.142;2022-08-19T06:45:20;18.77;;;17.07;;
9328;SDS011;4703;48.748;19.142;2022-08-19T06:47:50;18.13;;;16.53;;
9328;SDS011;4703;48.748;19.142;2022-08-19T06:50:22;17.60;;;15.83;;
9328;SDS011;4703;48.748;19.142;2022-08-19T06:52:50;17.80;;;16.20;;
9328;SDS011;4703;48.748;19.142;2022-08-19T06:55:18;17.77;;;16.17;;
9328;SDS011;4703;48.748;19.142;2022-08-19T06:57:45;22.93;;;20.73;;
9328;SDS011;4703;48.748;19.142;2022-08-19T07:00:14;27.67;;;24.93;;
9328;SDS011;4703;48.748;19.142;2022-08-19T07:02:43;34.17;;;30.77;;
9328;SDS011;4703;48.748;19.142;2022-08-19T07:05:20;26.50;;;23.77;;
9328;SDS011;4703;48.748;19.142;2022-08-19T07:07:48;21.47;;;19.47;;
9328;SDS011;4703;48.748;19.142;2022-08-19T07:10:16;19.63;;;17.93;;
9328;SDS011;4703;48.748;19.142;2022-08-19T07:12:43;18.63;;;16.77;;
9328;SDS011;4703;48.748;19.142;2022-08-19T07:15:11;17.03;;;15.70;;
9328;SDS011;4703;48.748;19.142;2022-08-19T07:17:38;17.60;;;16.20;;
9328;SDS011;4703;48.748;19.142;2022-08-19T07:20:07;16.70;;;15.30;;
9328;SDS011;4703;48.748;19.142;2022-08-19T07:22:36;17.20;;;15.80;;
9328;SDS011;4703;48.748;19.142;2022-08-19T07:25:05;16.40;;;15.10;;
9328;SDS011;4703;48.748;19.142;2022-08-19T07:27:34;16.93;;;15.43;;
9328;SDS011;4703;48.748;19.142;2022-08-19T07:30:02;17.20;;;15.63;;
9328;SDS011;4703;48.748;19.142;2022-08-19T07:32:30;15.43;;;14.13;;
9328;SDS011;4703;48.748;19.142;2022-08-19T07:34:57;16.80;;;15.30;;
9328;SDS011;4703;48.748;19.142;2022-08-19T07:37:27;16.20;;;14.80;;
9328;SDS011;4703;48.748;19.142;2022-08-19T07:39:59;18.33;;;16.67;;
9328;SDS011;4703;48.748;19.142;2022-08-19T07:42:27;19.00;;;17.00;;
9328;SDS011;4703;48.748;19.142;2022-08-19T07:44:56;16.83;;;15.13;;
9328;SDS011;4703;48.748;19.142;2022-08-19T07:47:24;15.47;;;14.17;;
9328;SDS011;4703;48.748;19.142;2022-08-19T07:50:13;15.83;;;14.53;;
9328;SDS011;4703;48.748;19.142;2022-08-19T07:52:40;16.83;;;15.37;;
9328;SDS011;4703;48.748;19.142;2022-08-19T07:55:15;16.20;;;14.90;;
9328;SDS011;4703;48.748;19.142;2022-08-19T07:58:08;14.70;;;13.40;;
9328;SDS011;4703;48.748;19.142;2022-08-19T08:00:41;16.53;;;15.03;;
9328;SDS011;4703;48.748;19.142;2022-08-19T08:03:09;16.00;;;14.70;;
9328;SDS011;4703;48.748;19.142;2022-08-19T08:05:37;15.10;;;13.73;;
9328;SDS011;4703;48.748;19.142;2022-08-19T08:08:22;15.97;;;14.50;;
9328;SDS011;4703;48.748;19.142;2022-08-19T08:11:13;15.90;;;14.60;;
9328;SDS011;4703;48.748;19.142;2022-08-19T08:13:46;16.93;;;15.40;;
9328;SDS011;4703;48.748;19.142;2022-08-19T08:16:30;16.03;;;14.53;;
9328;SDS011;4703;48.748;19.142;2022-08-19T08:19:12;16.70;;;15.30;;
9328;SDS011;4703;48.748;19.142;2022-08-19T08:21:51;14.37;;;13.17;;
9328;SDS011;4703;48.748;19.142;2022-08-19T08:24:21;15.47;;;14.20;;
9328;SDS011;4703;48.748;19.142;2022-08-19T08:26:54;16.53;;;14.87;;
9328;SDS011;4703;48.748;19.142;2022-08-19T08:29:23;16.00;;;14.60;;
9328;SDS011;4703;48.748;19.142;2022-08-19T08:31:59;16.37;;;14.73;;
9328;SDS011;4703;48.748;19.142;2022-08-19T08:34:26;15.00;;;13.60;;
9328;SDS011;4703;48.748;19.142;2022-08-19T08:36:53;14.20;;;12.90;;
9328;SDS011;4703;48.748;19.142;2022-08-19T08:39:20;15.10;;;13.70;;
9328;SDS011;4703;48.748;19.142;2022-08-19T08:47:35;14.00;;;12.70;;
9328;SDS011;4703;48.748;19.142;2022-08-19T08:50:13;14.10;;;12.90;;
9328;SDS011;4703;48.748;19.142;2022-08-19T08:52:55;13.40;;;12.40;;
9328;SDS011;4703;48.748;19.142;2022-08-19T08:55:25;12.63;;;11.67;;
9328;SDS011;4703;48.748;19.142;2022-08-19T08:58:06;13.50;;;12.20;;
9328;SDS011;4703;48.748;19.142;2022-08-19T09:00:52;13.37;;;12.27;;
9328;SDS011;4703;48.748;19.142;2022-08-19T09:03:26;13.57;;;12.30;;
9328;SDS011;4703;48.748;19.142;2022-08-19T09:06:01;11.70;;;10.83;;
9328;SDS011;4703;48.748;19.142;2022-08-19T09:11:40;11.80;;;10.80;;
9328;SDS011;4703;48.748;19.142;2022-08-19T09:14:29;12.33;;;11.33;;
9328;SDS011;4703;48.748;19.142;2022-08-19T09:17:21;12.83;;;11.57;;
9328;SDS011;4703;48.748;19.142;2022-08-19T09:20:21;13.73;;;12.43;;
9328;SDS011;4703;48.748;19.142;2022-08-19T09:22:51;14.87;;;13.67;;
9328;SDS011;4703;48.748;19.142;2022-08-19T09:25:19;13.13;;;12.03;;
9328;SDS011;4703;48.748;19.142;2022-08-19T09:27:54;13.40;;;12.27;;
9328;SDS011;4703;48.748;19.142;2022-08-19T09:30:29;12.53;;;11.43;;
9328;SDS011;4703;48.748;19.142;2022-08-19T09:33:00;14.53;;;13.30;;
9328;SDS011;4703;48.748;19.142;2022-08-19T09:35:27;13.33;;;12.27;;
9328;SDS011;4703;48.748;19.142;2022-08-19T09:37:57;13.60;;;12.50;;
9328;SDS011;4703;48.748;19.142;2022-08-19T09:40:26;13.73;;;12.63;;
9328;SDS011;4703;48.748;19.142;2022-08-19T09:42:56;13.80;;;12.60;;
9328;SDS011;4703;48.748;19.142;2022-08-19T09:45:26;13.77;;;12.47;;
9328;SDS011;4703;48.748;19.142;2022-08-19T09:47:53;13.27;;;12.07;;
9328;SDS011;4703;48.748;19.142;2022-08-19T09:50:21;13.20;;;12.20;;
9328;SDS011;4703;48.748;19.142;2022-08-19T09:52:49;13.83;;;12.53;;
9328;SDS011;4703;48.748;19.142;2022-08-19T09:55:23;13.20;;;12.17;;
9328;SDS011;4703;48.748;19.142;2022-08-19T09:57:59;12.13;;;11.13;;
9328;SDS011;4703;48.748;19.142;2022-08-19T10:00:27;12.90;;;11.90;;
9328;SDS011;4703;48.748;19.142;2022-08-19T10:02:55;11.90;;;11.00;;
9328;SDS011;4703;48.748;19.142;2022-08-19T10:05:22;11.70;;;10.70;;
9328;SDS011;4703;48.748;19.142;2022-08-19T10:08:08;11.67;;;10.70;;
9328;SDS011;4703;48.748;19.142;2022-08-19T10:10:40;10.80;;;10.00;;
9328;SDS011;4703;48.748;19.142;2022-08-19T10:13:12;12.97;;;11.87;;
9328;SDS011;4703;48.748;19.142;2022-08-19T10:15:43;12.50;;;11.50;;
9328;SDS011;4703;48.748;19.142;2022-08-19T10:18:13;22.40;;;20.43;;
9328;SDS011;4703;48.748;19.142;2022-08-19T10:20:43;17.00;;;15.40;;
9328;SDS011;4703;48.748;19.142;2022-08-19T10:23:17;27.33;;;24.77;;
9328;SDS011;4703;48.748;19.142;2022-08-19T10:25:46;14.43;;;13.23;;
9328;SDS011;4703;48.748;19.142;2022-08-19T10:28:14;11.83;;;10.73;;
9328;SDS011;4703;48.748;19.142;2022-08-19T10:30:45;12.20;;;11.10;;
9328;SDS011;4703;48.748;19.142;2022-08-19T10:33:13;11.60;;;10.60;;
9328;SDS011;4703;48.748;19.142;2022-08-19T10:36:12;11.63;;;10.57;;
9328;SDS011;4703;48.748;19.142;2022-08-19T10:38:44;12.67;;;11.67;;
9328;SDS011;4703;48.748;19.142;2022-08-19T10:41:22;11.67;;;10.47;;
9328;SDS011;4703;48.748;19.142;2022-08-19T10:43:54;11.47;;;10.47;;
9328;SDS011;4703;48.748;19.142;2022-08-19T10:46:29;10.70;;;9.90;;
9328;SDS011;4703;48.748;19.142;2022-08-19T10:48:59;11.13;;;10.03;;
9328;SDS011;4703;48.748;19.142;2022-08-19T10:51:27;10.80;;;9.80;;
9328;SDS011;4703;48.748;19.142;2022-08-19T10:54:14;10.60;;;9.77;;
9328;SDS011;4703;48.748;19.142;2022-08-19T10:56:42;10.23;;;9.53;;
9328;SDS011;4703;48.748;19.142;2022-08-19T10:59:20;10.17;;;9.47;;
9328;SDS011;4703;48.748;19.142;2022-08-19T11:02:02;10.97;;;9.97;;
9328;SDS011;4703;48.748;19.142;2022-08-19T11:04:32;10.87;;;9.97;;
9328;SDS011;4703;48.748;19.142;2022-08-19T11:07:01;9.57;;;8.70;;
9328;SDS011;4703;48.748;19.142;2022-08-19T11:09:29;10.27;;;9.33;;
9328;SDS011;4703;48.748;19.142;2022-08-19T11:11:59;10.27;;;9.23;;
9328;SDS011;4703;48.748;19.142;2022-08-19T11:14:30;10.37;;;9.47;;
9328;SDS011;4703;48.748;19.142;2022-08-19T11:16:59;11.10;;;10.30;;
9328;SDS011;4703;48.748;19.142;2022-08-19T11:19:28;9.60;;;8.90;;
9328;SDS011;4703;48.748;19.142;2022-08-19T11:21:56;9.90;;;9.17;;
9328;SDS011;4703;48.748;19.142;2022-08-19T11:24:29;10.20;;;9.43;;
9328;SDS011;4703;48.748;19.142;2022-08-19T11:27:00;10.03;;;9.13;;
9328;SDS011;4703;48.748;19.142;2022-08-19T11:29:36;10.07;;;9.37;;
9328;SDS011;4703;48.748;19.142;2022-08-19T11:32:05;10.57;;;9.77;;
9328;SDS011;4703;48.748;19.142;2022-08-19T11:34:35;10.10;;;9.33;;
9328;SDS011;4703;48.748;19.142;2022-08-19T11:37:03;9.90;;;9.00;;
9328;SDS011;4703;48.748;19.142;2022-08-19T11:39:32;10.20;;;9.37;;
9328;SDS011;4703;48.748;19.142;2022-08-19T11:42:01;9.97;;;9.13;;
9328;SDS011;4703;48.748;19.142;2022-08-19T11:44:51;11.17;;;10.23;;
9328;SDS011;4703;48.748;19.142;2022-08-19T11:47:19;9.30;;;8.70;;
9328;SDS011;4703;48.748;19.142;2022-08-19T11:49:47;10.33;;;9.33;;
9328;SDS011;4703;48.748;19.142;2022-08-19T11:52:14;9.47;;;8.77;;
9328;SDS011;4703;48.748;19.142;2022-08-19T11:54:41;10.03;;;9.33;;
9328;SDS011;4703;48.748;19.142;2022-08-19T11:57:08;10.20;;;9.23;;
9328;SDS011;4703;48.748;19.142;2022-08-19T11:59:35;9.13;;;8.43;;
9328;SDS011;4703;48.748;19.142;2022-08-19T12:02:02;9.90;;;9.10;;
9328;SDS011;4703;48.748;19.142;2022-08-19T12:04:29;9.50;;;8.77;;
9328;SDS011;4703;48.748;19.142;2022-08-19T12:06:56;10.50;;;9.50;;
9328;SDS011;4703;48.748;19.142;2022-08-19T12:09:23;8.73;;;8.17;;
9328;SDS011;4703;48.748;19.142;2022-08-19T12:11:50;9.37;;;8.67;;
9328;SDS011;4703;48.748;19.142;2022-08-19T12:14:17;9.10;;;8.50;;
9328;SDS011;4703;48.748;19.142;2022-08-19T12:16:45;10.57;;;9.50;;
9328;SDS011;4703;48.748;19.142;2022-08-19T12:19:17;10.40;;;9.57;;
9328;SDS011;4703;48.748;19.142;2022-08-19T12:21:48;10.57;;;9.77;;
9328;SDS011;4703;48.748;19.142;2022-08-19T12:24:16;9.47;;;8.87;;
9328;SDS011;4703;48.748;19.142;2022-08-19T12:26:51;14.33;;;13.03;;
9328;SDS011;4703;48.748;19.142;2022-08-19T12:29:19;10.90;;;10.00;;
9328;SDS011;4703;48.748;19.142;2022-08-19T12:31:49;15.83;;;14.63;;
9328;SDS011;4703;48.748;19.142;2022-08-19T12:34:17;10.60;;;9.80;;
9328;SDS011;4703;48.748;19.142;2022-08-19T12:36:46;9.57;;;8.80;;
9328;SDS011;4703;48.748;19.142;2022-08-19T12:39:15;10.70;;;9.80;;
9328;SDS011;4703;48.748;19.142;2022-08-19T12:41:42;10.07;;;9.20;;
9328;SDS011;4703;48.748;19.142;2022-08-19T12:44:20;10.17;;;9.33;;
9328;SDS011;4703;48.748;19.142;2022-08-19T12:46:57;10.50;;;9.60;;
9328;SDS011;4703;48.748;19.142;2022-08-19T12:49:27;11.23;;;10.17;;
9328;SDS011;4703;48.748;19.142;2022-08-19T12:52:15;12.67;;;10.07;;
9328;SDS011;4703;48.748;19.142;2022-08-19T12:54:48;9.33;;;8.57;;
9328;SDS011;4703;48.748;19.142;2022-08-19T12:57:20;10.50;;;9.30;;
9328;SDS011;4703;48.748;19.142;2022-08-19T12:59:59;9.33;;;8.53;;
9328;SDS011;4703;48.748;19.142;2022-08-19T13:02:31;9.87;;;9.17;;
9328;SDS011;4703;48.748;19.142;2022-08-19T13:05:04;9.70;;;8.90;;
9328;SDS011;4703;48.748;19.142;2022-08-19T13:07:34;12.10;;;9.47;;
9328;SDS011;4703;48.748;19.142;2022-08-19T13:10:04;9.67;;;8.63;;
9328;SDS011;4703;48.748;19.142;2022-08-19T13:12:33;10.33;;;9.50;;
9328;SDS011;4703;48.748;19.142;2022-08-19T13:15:00;9.83;;;8.93;;
9328;SDS011;4703;48.748;19.142;2022-08-19T13:17:35;9.57;;;8.70;;
9328;SDS011;4703;48.748;19.142;2022-08-19T13:20:04;9.70;;;8.90;;
9328;SDS011;4703;48.748;19.142;2022-08-19T13:22:34;10.30;;;9.30;;
9328;SDS011;4703;48.748;19.142;2022-08-19T13:25:02;11.57;;;9.30;;
9328;SDS011;4703;48.748;19.142;2022-08-19T13:27:31;10.03;;;9.23;;
9328;SDS011;4703;48.748;19.142;2022-08-19T13:29:59;12.20;;;8.73;;
9328;SDS011;4703;48.748;19.142;2022-08-19T13:32:45;12.47;;;9.70;;
9328;SDS011;4703;48.748;19.142;2022-08-19T13:35:30;11.00;;;8.93;;
9328;SDS011;4703;48.748;19.142;2022-08-19T13:37:58;10.90;;;9.57;;
9328;SDS011;4703;48.748;19.142;2022-08-19T13:40:25;10.17;;;9.20;;
9328;SDS011;4703;48.748;19.142;2022-08-19T13:42:53;10.27;;;8.50;;
9328;SDS011;4703;48.748;19.142;2022-08-19T13:45:23;10.90;;;9.30;;
9328;SDS011;4703;48.748;19.142;2022-08-19T13:47:52;9.93;;;8.47;;
9328;SDS011;4703;48.748;19.142;2022-08-19T13:50:28;11.47;;;10.23;;
9328;SDS011;4703;48.748;19.142;2022-08-19T13:53:00;9.73;;;8.80;;
9328;SDS011;4703;48.748;19.142;2022-08-19T13:55:28;10.63;;;9.70;;
9328;SDS011;4703;48.748;19.142;2022-08-19T13:57:57;8.93;;;8.20;;
9328;SDS011;4703;48.748;19.142;2022-08-19T14:00:32;9.63;;;8.77;;
9328;SDS011;4703;48.748;19.142;2022-08-19T14:03:04;9.07;;;8.30;;
9328;SDS011;4703;48.748;19.142;2022-08-19T14:05:34;8.90;;;8.10;;
9328;SDS011;4703;48.748;19.142;2022-08-19T14:08:02;9.47;;;8.70;;
9328;SDS011;4703;48.748;19.142;2022-08-19T14:10:29;9.73;;;8.10;;
9328;SDS011;4703;48.748;19.142;2022-08-19T14:12:58;8.80;;;8.00;;
9328;SDS011;4703;48.748;19.142;2022-08-19T14:15:28;11.73;;;10.53;;
9328;SDS011;4703;48.748;19.142;2022-08-19T14:17:56;20.27;;;18.37;;
9328;SDS011;4703;48.748;19.142;2022-08-19T14:20:24;13.33;;;12.20;;
9328;SDS011;4703;48.748;19.142;2022-08-19T14:22:52;10.20;;;9.30;;
9328;SDS011;4703;48.748;19.142;2022-08-19T14:25:22;11.30;;;9.10;;
9328;SDS011;4703;48.748;19.142;2022-08-19T14:27:52;10.23;;;8.30;;
9328;SDS011;4703;48.748;19.142;2022-08-19T14:30:22;8.90;;;7.47;;
9328;SDS011;4703;48.748;19.142;2022-08-19T14:32:56;8.20;;;7.40;;
9328;SDS011;4703;48.748;19.142;2022-08-19T14:35:26;9.00;;;8.20;;
9328;SDS011;4703;48.748;19.142;2022-08-19T14:37:55;8.10;;;7.40;;
9328;SDS011;4703;48.748;19.142;2022-08-19T14:40:24;11.50;;;7.93;;
9328;SDS011;4703;48.748;19.142;2022-08-19T14:42:59;8.60;;;7.80;;
9328;SDS011;4703;48.748;19.142;2022-08-19T14:45:37;8.03;;;7.13;;
9328;SDS011;4703;48.748;19.142;2022-08-19T14:48:07;10.40;;;7.60;;
9328;SDS011;4703;48.748;19.142;2022-08-19T14:50:44;8.00;;;7.20;;
9328;SDS011;4703;48.748;19.142;2022-08-19T14:53:11;11.57;;;8.83;;
9328;SDS011;4703;48.748;19.142;2022-08-19T14:55:42;8.63;;;7.60;;
9328;SDS011;4703;48.748;19.142;2022-08-19T14:58:11;10.40;;;7.33;;
9328;SDS011;4703;48.748;19.142;2022-08-19T15:00:55;10.70;;;7.37;;
9328;SDS011;4703;48.748;19.142;2022-08-19T15:03:24;10.63;;;7.07;;
9328;SDS011;4703;48.748;19.142;2022-08-19T15:05:52;8.10;;;7.30;;
9328;SDS011;4703;48.748;19.142;2022-08-19T15:08:19;8.40;;;7.63;;
9328;SDS011;4703;48.748;19.142;2022-08-19T15:10:47;14.63;;;7.50;;
9328;SDS011;4703;48.748;19.142;2022-08-19T15:13:14;10.77;;;7.63;;
9328;SDS011;4703;48.748;19.142;2022-08-19T15:15:42;10.77;;;7.90;;
9328;SDS011;4703;48.748;19.142;2022-08-19T15:18:08;7.70;;;7.00;;